Data for 07/18/2007

Time Sea-Level Adjusted Pressure Absolute Pressure Temperature Relative Humidity Dew Point   
(mb) (inHg) (mb) (inHg) (C) (F) (%) (C) (F)
00:05 1017 30.03 846 24.98 22.2 72 50 11.5 52.8
00:10 1017 30.03 846 24.98 22.3 72.1 50 11.5 52.7
00:15 1017 30.03 846 24.98 22.3 72.1 50 11.5 52.8
00:20 1017 30.03 846 24.98 22.2 72 50 11.5 52.7
00:25 1017 30.03 846 24.98 22.2 71.9 51 11.6 53
00:30 1017 30.03 847 25.01 22 71.6 51 11.7 53
00:35 1017 30.03 847 25.01 22 71.6 51 11.7 53
00:40 1017 30.03 847 25.01 22 71.5 51 11.6 52.8
00:45 1018 30.06 847 25.01 22 71.7 51 11.5 52.6
00:50 1018 30.06 847 25.01 22.1 71.7 52 12 53.6
00:55 1019 30.09 848 25.04 22.1 71.8 56 13 55.4
01:00 1019 30.09 848 25.04 21.6 70.8 65 14.8 58.6
01:05 1019 30.09 848 25.04 20.1 68.2 69 14.4 57.9
01:10 1019 30.09 848 25.04 19.5 67.1 73 14.6 58.3
01:15 1019 30.09 848 25.04 19 66.2 76 14.8 58.7
01:20 1020 30.12 849 25.07 18.6 65.5 78 14.8 58.7
01:25 1020 30.12 849 25.07 18.4 65.2 77 14.5 58
01:30 1020 30.12 849 25.07 18.4 65.2 78 14.5 58.1
01:35 1020 30.12 849 25.07 18.3 64.9 80 14.8 58.7
01:40 1020 30.12 850 25.1 18.2 64.8 81 15 59.1
01:45 1020 30.12 850 25.1 18.2 64.8 80 14.8 58.7
01:50 1020 30.12 850 25.1 18.3 64.9 79 14.7 58.4
01:55 1020 30.12 850 25.1 18.2 64.7 80 14.7 58.5
02:00 1020 30.12 850 25.1 18 64.4 80 14.5 58.1
02:05 1020 30.12 850 25.1 17.9 64.3 80 14.4 58
02:10 1020 30.12 850 25.1 17.9 64.1 80 14.3 57.8
02:15 1020 30.12 850 25.1 17.7 63.9 80 14.3 57.8
02:20 1021 30.15 850 25.1 17.6 63.8 79 14 57.2
02:25 1021 30.15 850 25.1 17.7 63.9 80 14.2 57.6
02:30 1021 30.15 850 25.1 17.7 63.8 81 14.3 57.7
02:35 1021 30.15 850 25.1 17.7 63.8 81 14.3 57.8
02:40 1021 30.15 850 25.1 17.6 63.6 80 14.2 57.6
02:45 1021 30.15 850 25.1 17.6 63.7 80 14.2 57.6
02:50 1021 30.15 850 25.1 17.7 63.8 80 14.2 57.5
02:55 1021 30.15 850 25.1 17.7 63.9 80 14.2 57.6
03:00 1021 30.15 850 25.1 17.6 63.8 81 14.4 57.9
03:05 1020 30.12 850 25.1 17.4 63.3 82 14.4 57.9
03:10 1020 30.12 850 25.1 17.4 63.3 80 14 57.2
03:15 1020 30.12 849 25.07 17.5 63.5 77 13.6 56.4
03:20 1020 30.12 849 25.07 17.7 63.8 78 13.8 56.8
03:25 1020 30.12 849 25.07 17.5 63.6 79 13.9 56.9
03:30 1020 30.12 849 25.07 17.5 63.4 78 13.7 56.7
03:35 1020 30.12 849 25.07 17.6 63.6 78 13.7 56.6
03:40 1020 30.12 849 25.07 17.5 63.6 77 13.6 56.4
03:45 1020 30.12 849 25.07 17.6 63.7 77 13.6 56.5
03:50 1020 30.12 849 25.07 17.6 63.7 77 13.7 56.6
03:55 1020 30.12 849 25.07 17.6 63.7 78 13.7 56.7
04:00 1020 30.12 849 25.07 17.5 63.4 79 13.7 56.7
04:05 1020 30.12 849 25.07 17.5 63.4 78 13.7 56.6
04:10 1020 30.12 849 25.07 17.5 63.5 78 13.7 56.6
04:15 1020 30.12 849 25.07 17.1 62.8 80 13.6 56.5
04:20 1020 30.12 849 25.07 17.1 62.8 79 13.6 56.4
04:25 1020 30.12 849 25.07 17.1 62.8 80 13.6 56.5
04:30 1020 30.12 849 25.07 17 62.7 80 13.6 56.4
04:35 1020 30.12 849 25.07 16.7 62.1 81 13.4 56.2
04:40 1020 30.12 849 25.07 16.6 61.8 81 13.4 56.1
04:45 1020 30.12 849 25.07 16.5 61.7 83 13.5 56.4
04:50 1020 30.12 849 25.07 16.2 61.1 84 13.5 56.4
04:55 1020 30.12 849 25.07 16.1 60.9 84 13.5 56.2
05:00 1020 30.12 849 25.07 16.1 60.9 84 13.4 56.2
05:05 1020 30.12 849 25.07 16 60.8 84 13.4 56.1
05:10 1019 30.09 849 25.07 16 60.9 84 13.4 56.2
05:15 1019 30.09 849 25.07 15.7 60.3 86 13.4 56.1
05:20 1019 30.09 849 25.07 15.6 60 87 13.3 56
05:25 1019 30.09 848 25.04 15.4 59.8 87 13.3 55.9
05:30 1019 30.09 848 25.04 15.6 60 86 13.2 55.8
05:35 1019 30.09 848 25.04 15.7 60.3 85 13.1 55.7
05:40 1019 30.09 848 25.04 15.9 60.7 83 13 55.5
05:45 1019 30.09 848 25.04 16.2 61.1 81 13 55.4
05:50 1019 30.09 848 25.04 16 60.8 82 12.9 55.2
05:55 1018 30.06 848 25.04 15.8 60.4 82 12.8 55
06:00 1018 30.06 848 25.04 15.6 60.1 83 12.8 55.1
06:05 1018 30.06 847 25.01 15.7 60.2 81 12.5 54.5
06:10 1018 30.06 847 25.01 15.8 60.4 82 12.8 55.1
06:15 1018 30.06 847 25.01 15.6 60.1 84 12.9 55.3
06:20 1018 30.06 847 25.01 15.7 60.3 82 12.7 54.9
06:25 1018 30.06 848 25.04 16 60.7 82 12.9 55.3
06:30 1019 30.09 848 25.04 16.2 61.2 81 13.1 55.5
06:35 1019 30.09 848 25.04 16.6 61.8 79 13 55.4
06:40 1019 30.09 848 25.04 16.8 62.3 80 13.4 56.1
06:45 1019 30.09 848 25.04 16.8 62.3 80 13.3 55.9
06:50 1019 30.09 848 25.04 17.1 62.8 76 13 55.4
06:55 1019 30.09 848 25.04 17.6 63.7 76 13.4 56.1
07:00 1019 30.09 848 25.04 17.8 64.1 75 13.4 56.1
07:05 1019 30.09 848 25.04 17.8 64 76 13.5 56.3
07:10 1019 30.09 848 25.04 18.1 64.7 74 13.5 56.3
07:15 1019 30.09 848 25.04 18.5 65.3 73 13.7 56.6
07:20 1019 30.09 848 25.04 18.6 65.5 72 13.6 56.4
07:25 1019 30.09 848 25.04 18.8 65.8 72 13.7 56.7
07:30 1019 30.09 848 25.04 18.8 65.8 72 13.7 56.6
07:35 1019 30.09 848 25.04 19.1 66.4 70 13.6 56.6
07:40 1019 30.09 848 25.04 19.4 66.9 71 14 57.2
07:45 1019 30.09 848 25.04 19.2 66.6 71 14 57.2
07:50 1019 30.09 848 25.04 19 66.2 72 13.8 56.9
07:55 1019 30.09 848 25.04 19 66.2 72 14 57.2
08:00 1019 30.09 848 25.04 18.9 65.9 72 13.9 56.9
08:05 1019 30.09 848 25.04 18.7 65.7 73 13.8 56.8
08:10 1019 30.09 848 25.04 18.7 65.7 73 13.8 56.8
08:15 1019 30.09 848 25.04 19.1 66.3 72 13.9 56.9
08:20 1019 30.09 848 25.04 19.2 66.6 71 13.9 57
08:25 1019 30.09 848 25.04 19.4 66.9 71 14.1 57.3
08:30 1019 30.09 848 25.04 19.6 67.3 70 14.1 57.3
08:35 1019 30.09 848 25.04 19.7 67.5 70 14.2 57.6
08:40 1019 30.09 849 25.07 19 66.1 71 13.7 56.6
08:45 1019 30.09 849 25.07 19.4 66.9 71 14.1 57.3
08:50 1019 30.09 849 25.07 19.5 67.1 68 13.5 56.4
08:55 1019 30.09 849 25.07 19.8 67.6 69 14 57.2
09:00 1019 30.09 849 25.07 19.8 67.7 70 14.3 57.7
09:05 1019 30.09 849 25.07 20.2 68.4 66 13.9 57
09:10 1019 30.09 849 25.07 21 69.9 64 14 57.3
09:15 1019 30.09 849 25.07 20.7 69.3 67 14.4 58
09:20 1019 30.09 849 25.07 20.6 69 65 13.9 57.1
09:25 1019 30.09 849 25.07 20.9 69.6 65 14.2 57.5
09:30 1019 30.09 849 25.07 21.1 70 62 13.7 56.6
09:35 1019 30.09 849 25.07 21.2 70.2 62 13.8 56.8
09:40 1019 30.09 849 25.07 21 69.8 65 14.4 57.8
09:45 1019 30.09 849 25.07 20.7 69.3 63 13.5 56.3
09:50 1019 30.09 849 25.07 21 69.7 64 14 57.2
09:55 1019 30.09 848 25.04 21.3 70.4 63 14 57.3
10:00 1019 30.09 848 25.04 20.9 69.6 62 13.5 56.3
10:05 1019 30.09 849 25.07 21.3 70.4 63 14.1 57.5
10:10 1019 30.09 849 25.07 21.4 70.4 62 13.9 57
10:15 1019 30.09 848 25.04 21.3 70.4 63 14 57.2
10:20 1019 30.09 848 25.04 22.1 71.7 60 14.1 57.5
10:25 1019 30.09 848 25.04 22.6 72.6 58 14 57.1
10:30 1019 30.09 848 25.04 23 73.5 58 14.4 57.9
10:35 1019 30.09 848 25.04 22.4 72.4 59 14.1 57.4
10:40 1019 30.09 848 25.04 22.5 72.6 59 14.2 57.5
10:45 1019 30.09 848 25.04 22.6 72.7 58 14.1 57.3
10:50 1019 30.09 848 25.04 23.6 74.4 55 14.2 57.6
10:55 1019 30.09 848 25.04 23.5 74.3 54 13.9 57.1
11:00 1019 30.09 848 25.04 23.9 74.9 55 14.3 57.7
11:05 1019 30.09 848 25.04 24.5 76 53 14.4 57.9
11:10 1019 30.09 848 25.04 25.1 77.2 50 14.2 57.5
11:15 1019 30.09 848 25.04 24.8 76.6 54 15.1 59.2
11:20 1019 30.09 848 25.04 24.6 76.3 52 14.4 57.9
11:25 1018 30.06 848 25.04 24.8 76.6 54 15.1 59.2
11:30 1018 30.06 848 25.04 24.5 76.1 54 14.8 58.6
11:35 1018 30.06 848 25.04 25.4 77.7 51 14.8 58.6
11:40 1018 30.06 848 25.04 25.5 77.9 54 15.7 60.2
11:45 1018 30.06 848 25.04 25.1 77.3 52 14.7 58.4
11:50 1018 30.06 848 25.04 26.4 79.5 49 15.2 59.3
11:55 1018 30.06 848 25.04 26.7 80.1 50 15.7 60.3
12:00 1018 30.06 847 25.01 26 78.8 51 15.4 59.7
12:05 1018 30.06 847 25.01 26.1 79 50 15 59.1
12:10 1018 30.06 847 25.01 25.7 78.3 52 15.2 59.4
12:15 1018 30.06 847 25.01 25.8 78.5 51 15.2 59.3
12:20 1018 30.06 847 25.01 25.9 78.5 51 15 59.1
12:25 1018 30.06 847 25.01 26.9 80.4 47 14.9 58.9
12:30 1018 30.06 847 25.01 27.8 82 45 15.1 59.1
12:35 1018 30.06 847 25.01 28.1 82.7 46 15.6 60
12:40 1018 30.06 847 25.01 27.9 82.3 45 15.2 59.3
12:45 1018 30.06 847 25.01 27.5 81.6 49 16.2 61.2
12:50 1018 30.06 847 25.01 27.1 80.9 49 15.8 60.5
12:55 1018 30.06 847 25.01 27.4 81.3 47 15.3 59.5
13:00 1018 30.06 847 25.01 27.3 81.2 49 15.8 60.4
13:05 1018 30.06 847 25.01 27.9 82.2 44 14.6 58.3
13:10 1017 30.03 847 25.01 28.6 83.4 46 15.9 60.7
13:15 1017 30.03 847 25.01 28.9 84 43 15.3 59.6
13:20 1017 30.03 847 25.01 28.7 83.6 45 15.8 60.4
13:25 1017 30.03 846 24.98 29 84.2 43 15.5 59.9
13:30 1017 30.03 846 24.98 29.1 84.3 43 15.5 59.9
13:35 1017 30.03 846 24.98 29.3 84.7 42 15.3 59.6
13:40 1017 30.03 846 24.98 29.4 84.9 42 15.3 59.5
13:45 1017 30.03 846 24.98 29.8 85.7 39 14.6 58.2
13:50 1017 30.03 846 24.98 29.9 85.8 39 14.5 58.1
13:55 1017 30.03 846 24.98 30.4 86.7 36 13.9 57
14:00 1017 30.03 846 24.98 30.7 87.3 37 14.6 58.3
14:05 1017 30.03 846 24.98 30.6 87 34 13.4 56.2
14:10 1017 30.03 846 24.98 30.6 87.1 35 13.5 56.4
14:15 1017 30.03 846 24.98 31.1 88 33 13.1 55.5
14:20 1017 30.03 846 24.98 30.9 87.6 32 12.8 55
14:25 1017 30.03 846 24.98 30.8 87.4 34 13.3 55.9
14:30 1017 30.03 846 24.98 30.7 87.2 33 13.1 55.6
14:35 1017 30.03 846 24.98 30.7 87.3 33 13.1 55.7
14:40 1016 30 846 24.98 31 87.7 33 13.3 56
14:45 1016 30 846 24.98 31.2 88.1 34 13.6 56.5
14:50 1016 30 846 24.98 30.9 87.5 33 13.1 55.5
14:55 1016 30 846 24.98 32.2 89.9 31 13.2 55.7
15:00 1016 30 845 24.95 32.6 90.7 31 13.6 56.6
15:05 1016 30 845 24.95 31.6 88.8 31 12.9 55.3
15:10 1016 30 845 24.95 31.8 89.3 30 12.7 54.8
15:15 1016 30 845 24.95 32.7 90.9 28 12 53.5
15:20 1016 30 845 24.95 32.7 90.9 26 11.3 52.3
15:25 1016 30 845 24.95 32.5 90.6 28 12 53.5
15:30 1016 30 845 24.95 32 89.6 27 10.9 51.7
15:35 1016 30 845 24.95 32 89.6 26 10.6 51
15:40 1016 30 845 24.95 32 89.6 27 10.9 51.7
15:45 1016 30 845 24.95 32 89.6 26 10.5 51
15:50 1016 30 845 24.95 32.1 89.7 26 10.8 51.5
15:55 1016 30 845 24.95 32.3 90.1 27 11.5 52.7
16:00 1016 30 845 24.95 32.2 89.9 26 10.4 50.7
16:05 1016 30 845 24.95 32.2 90 26 10.9 51.6
16:10 1016 30 845 24.95 32.4 90.3 27 11.3 52.3
16:15 1016 30 845 24.95 32.2 89.9 27 11.2 52.2
16:20 1016 30 845 24.95 32 89.6 27 11.1 52
16:25 1016 30 845 24.95 32.2 90 26 10.7 51.2
16:30 1015 29.97 845 24.95 32.3 90.1 27 11.1 51.9
16:35 1015 29.97 845 24.95 32.5 90.4 27 11.6 52.9
16:40 1015 29.97 845 24.95 32.2 90 26 10.9 51.7
16:45 1015 29.97 845 24.95 32 89.5 27 11 51.8
16:50 1015 29.97 845 24.95 32.1 89.8 27 10.9 51.5
16:55 1015 29.97 844 24.92 31.8 89.3 27 11 51.8
17:00 1015 29.97 844 24.92 31.6 88.9 27 10.9 51.6
17:05 1015 29.97 844 24.92 31.4 88.4 28 11.2 52.1
17:10 1015 29.97 844 24.92 31.2 88.2 29 11.5 52.7
17:15 1015 29.97 844 24.92 31.2 88.2 29 11.3 52.3
17:20 1015 29.97 844 24.92 31.2 88.2 29 11.3 52.4
17:25 1015 29.97 844 24.92 31 87.9 29 11.2 52.1
17:30 1015 29.97 844 24.92 30.9 87.7 29 11.1 52
17:35 1015 29.97 844 24.92 30.9 87.7 30 11.5 52.6
17:40 1015 29.97 844 24.92 31 87.8 29 11 51.7
17:45 1015 29.97 844 24.92 31.1 87.9 29 11.5 52.7
17:50 1015 29.97 844 24.92 31.2 88.1 29 11.5 52.7
17:55 1015 29.97 844 24.92 31 87.8 29 11.4 52.6
18:00 1015 29.97 844 24.92 31 87.7 30 11.4 52.6
18:05 1015 29.97 844 24.92 30.8 87.5 30 11.6 52.9
18:10 1015 29.97 844 24.92 30.9 87.5 30 11.6 52.8
18:15 1015 29.97 844 24.92 30.8 87.4 30 11.4 52.5
18:20 1015 29.97 844 24.92 30.8 87.4 30 11.4 52.6
18:25 1015 29.97 844 24.92 30.8 87.4 30 11.4 52.5
18:30 1015 29.97 844 24.92 30.7 87.3 30 11.3 52.3
18:35 1015 29.97 844 24.92 30.6 87.1 29 11 51.8
18:40 1015 29.97 844 24.92 30.5 86.9 30 11.1 52
18:45 1015 29.97 844 24.92 30.5 86.9 30 11.2 52.1
18:50 1015 29.97 844 24.92 30.5 86.8 30 11.2 52.1
18:55 1015 29.97 844 24.92 30.4 86.8 30 11.3 52.3
19:00 1015 29.97 844 24.92 30.4 86.7 29 10.8 51.5
19:05 1015 29.97 844 24.92 30.3 86.6 29 10.7 51.3
19:10 1015 29.97 844 24.92 30.3 86.5 30 10.9 51.6
19:15 1015 29.97 844 24.92 30.1 86.3 30 11.1 52
19:20 1015 29.97 844 24.92 30 86.1 30 11.1 51.9
19:25 1015 29.97 844 24.92 29.8 85.6 31 11.1 52
19:30 1014 29.94 844 24.92 29.7 85.4 31 11.1 52
19:35 1015 29.97 844 24.92 29.6 85.3 31 11.1 52
19:40 1014 29.94 844 24.92 29.5 85.2 31 10.9 51.6
19:45 1014 29.94 844 24.92 29.5 85.1 32 11.3 52.3
19:50 1015 29.97 844 24.92 29.3 84.8 33 11.5 52.7
19:55 1015 29.97 844 24.92 29.2 84.5 33 11.5 52.7
20:00 1015 29.97 844 24.92 29.1 84.4 34 11.9 53.5
20:05 1015 29.97 844 24.92 28.9 84 34 11.8 53.2
20:10 1015 29.97 844 24.92 28.8 83.9 35 12.1 53.8
20:15 1015 29.97 844 24.92 28.7 83.7 35 12.2 54
20:20 1015 29.97 844 24.92 28.6 83.4 36 12.3 54.1
20:25 1015 29.97 844 24.92 28.4 83.2 37 12.4 54.4
20:30 1014 29.94 844 24.92 28.3 83 38 12.8 55
20:35 1015 29.97 844 24.92 28.1 82.6 38 12.8 55
20:40 1015 29.97 844 24.92 28 82.4 38 12.8 55.1
20:45 1015 29.97 844 24.92 27.8 82.1 39 12.9 55.2
20:50 1015 29.97 844 24.92 27.7 81.9 39 12.9 55.3
20:55 1015 29.97 844 24.92 27.6 81.8 39 12.8 55.1
21:00 1015 29.97 844 24.92 27.6 81.6 39 12.8 55
21:05 1015 29.97 844 24.92 27.4 81.3 40 12.8 55.1
21:10 1015 29.97 844 24.92 27.2 81 40 12.7 54.8
21:15 1015 29.97 844 24.92 27.2 80.9 40 12.6 54.7
21:20 1015 29.97 844 24.92 27.1 80.7 41 12.8 55
21:25 1015 29.97 844 24.92 26.9 80.5 41 12.7 54.9
21:30 1015 29.97 844 24.92 26.8 80.3 41 12.6 54.7
21:35 1015 29.97 844 24.92 26.8 80.2 41 12.6 54.6
21:40 1015 29.97 844 24.92 26.6 79.9 41 12.5 54.5
21:45 1015 29.97 844 24.92 26.6 79.9 41 12.4 54.4
21:50 1015 29.97 844 24.92 26.5 79.7 41 12.3 54.2
21:55 1015 29.97 844 24.92 26.4 79.5 41 12.2 54
22:00 1015 29.97 844 24.92 26.4 79.4 41 12.2 54
22:05 1015 29.97 844 24.92 26.4 79.5 41 12.2 53.9
22:10 1015 29.97 844 24.92 26.4 79.5 41 12.2 54
22:15 1015 29.97 845 24.95 26.4 79.4 41 12.3 54.2
22:20 1015 29.97 845 24.95 26.3 79.3 41 12.3 54.1
22:25 1015 29.97 845 24.95 26.2 79.2 41 12.1 53.8
22:30 1015 29.97 845 24.95 26.3 79.3 41 12.3 54.1
22:35 1016 30 845 24.95 26.4 79.5 40 12 53.6
22:40 1015 29.97 845 24.95 26.5 79.8 40 12 53.6
22:45 1015 29.97 844 24.92 26.6 79.8 39 11.9 53.4
22:50 1015 29.97 844 24.92 26.5 79.7 40 12 53.7
22:55 1015 29.97 845 24.95 26.5 79.6 40 12.1 53.8
23:00 1015 29.97 845 24.95 26.4 79.4 41 12.2 53.9
23:05 1015 29.97 844 24.92 26.3 79.3 41 12.4 54.3
23:10 1015 29.97 844 24.92 26.2 79.2 42 12.5 54.6
23:15 1015 29.97 844 24.92 26.1 78.9 43 12.7 54.8
23:20 1015 29.97 844 24.92 26 78.8 43 12.7 54.9
23:25 1015 29.97 844 24.92 25.9 78.7 43 12.8 55
23:30 1015 29.97 844 24.92 25.9 78.5 44 12.9 55.3
23:35 1015 29.97 844 24.92 25.8 78.5 44 13 55.4
23:40 1015 29.97 844 24.92 25.7 78.2 45 12.9 55.3
23:45 1015 29.97 844 24.92 25.7 78.3 45 13 55.5
23:50 1015 29.97 844 24.92 25.5 77.9 46 13.1 55.6
23:55 1015 29.97 844 24.92 25.4 77.7 46 13.3 55.9
24:00 1015 29.97 844 24.92 25.2 77.4 47 13.2 55.8